Terminal Aerodrome Forecast
Issued by NWS Portland, OR

Home | Current Version | Previous Version | Text Only | Print | Product List | Glossary On
Versions: 1 2 3 4 5 6 7 8 9 10 11 12 13 14 15 16 17 18 19 20 21 22 23 24 25
000
FTUS46 KPQR 270526
TAFPDX
TAF
KPDX 270526Z 2706/2806 31005KT P6SM FEW250
     FM271400 25005KT P6SM SCT012 SCT250
     FM271800 29007KT P6SM SCT250
     FM280100 32008KT P6SM SCT050 SCT250=

USA.gov is the U.S. government's official web portal to all federal, state and local government web resources and services.